createdAt,value
2023-03-19T00:00:49.938Z,8.88
2023-03-19T00:03:17.432Z,7.32
2023-03-19T00:05:54.095Z,8.10
2023-03-19T00:08:22.644Z,7.55
2023-03-19T00:10:50.261Z,8.40
2023-03-19T00:13:17.910Z,9.30
2023-03-19T00:15:45.663Z,7.63
2023-03-19T00:18:13.093Z,9.23
2023-03-19T00:20:40.717Z,7.50
2023-03-19T00:23:09.125Z,8.93
2023-03-19T00:25:36.569Z,8.15
2023-03-19T00:28:03.932Z,8.27
2023-03-19T00:30:31.331Z,8.65
2023-03-19T00:32:58.748Z,7.75
2023-03-19T00:35:26.027Z,8.30
2023-03-19T00:37:53.490Z,8.20
2023-03-19T00:40:20.877Z,8.07
2023-03-19T00:42:48.251Z,8.30
2023-03-19T00:45:16.522Z,9.20
2023-03-19T00:47:43.861Z,7.25
2023-03-19T00:50:13.717Z,7.13
2023-03-19T00:52:41.173Z,8.10
2023-03-19T00:55:09.278Z,9.93
2023-03-19T00:57:36.874Z,8.15
2023-03-19T01:00:05.487Z,8.75
2023-03-19T01:02:32.947Z,9.48
2023-03-19T01:05:00.635Z,7.40
2023-03-19T01:07:27.963Z,8.35
2023-03-19T01:09:56.973Z,7.50
2023-03-19T01:12:24.292Z,9.68
2023-03-19T01:14:51.637Z,8.98
2023-03-19T01:17:19.959Z,7.88
2023-03-19T01:19:48.940Z,8.00
2023-03-19T01:22:17.536Z,8.32
2023-03-19T01:24:50.477Z,8.95
2023-03-19T01:27:18.243Z,10.30
2023-03-19T01:29:46.909Z,8.77
2023-03-19T01:32:31.562Z,9.10
2023-03-19T01:35:18.151Z,8.98
2023-03-19T01:37:46.189Z,9.45
2023-03-19T01:40:14.953Z,8.75
2023-03-19T01:43:19.324Z,8.43
2023-03-19T01:46:03.493Z,9.77
2023-03-19T01:48:54.939Z,9.32
2023-03-19T01:51:30.450Z,7.88
2023-03-19T01:54:21.731Z,9.10
2023-03-19T01:57:16.614Z,8.15
2023-03-19T02:00:12.637Z,8.05
2023-03-19T02:02:50.214Z,8.00
2023-03-19T02:05:44.151Z,8.02
2023-03-19T02:08:16.911Z,8.50
2023-03-19T02:10:47.930Z,7.82
2023-03-19T02:13:16.002Z,8.60
2023-03-19T02:15:43.492Z,8.68
2023-03-19T02:18:11.974Z,8.23
2023-03-19T02:20:53.875Z,8.35
2023-03-19T02:23:27.990Z,8.32
2023-03-19T02:26:21.648Z,7.45
2023-03-19T02:28:52.818Z,8.43
2023-03-19T02:31:26.072Z,8.50
2023-03-19T02:34:23.992Z,8.00
2023-03-19T02:37:26.046Z,8.27
2023-03-19T02:40:04.581Z,8.70
2023-03-19T02:42:31.905Z,7.70
2023-03-19T02:44:59.264Z,7.18
2023-03-19T02:47:27.761Z,9.25
2023-03-19T02:49:55.199Z,7.40
2023-03-19T02:52:23.704Z,8.70
2023-03-19T02:54:51.092Z,7.82
2023-03-19T02:57:18.790Z,7.47
2023-03-19T02:59:46.317Z,8.52
2023-03-19T03:02:14.164Z,7.78
2023-03-19T03:04:41.892Z,7.68
2023-03-19T03:07:09.401Z,7.55
2023-03-19T03:09:36.787Z,9.75
2023-03-19T03:12:04.913Z,10.70
2023-03-19T03:14:32.443Z,8.75
2023-03-19T03:17:00.377Z,9.85
2023-03-19T03:19:27.810Z,10.20
2023-03-19T03:21:55.269Z,10.23
2023-03-19T03:24:24.125Z,10.30
2023-03-19T03:26:53.001Z,10.05
2023-03-19T03:29:21.998Z,8.30
2023-03-19T03:31:52.466Z,7.70
2023-03-19T03:34:26.281Z,9.05
2023-03-19T03:36:56.845Z,8.40
2023-03-19T03:39:26.371Z,9.18
2023-03-19T03:41:58.654Z,10.40
2023-03-19T03:44:29.331Z,9.73
2023-03-19T03:46:59.524Z,10.10
2023-03-19T03:49:29.933Z,10.10
2023-03-19T03:52:00.057Z,9.52
2023-03-19T03:54:29.189Z,9.27
2023-03-19T03:56:58.119Z,10.13
2023-03-19T03:59:26.274Z,9.68
2023-03-19T04:01:53.718Z,9.98
2023-03-19T04:04:21.994Z,10.20
2023-03-19T04:06:49.309Z,10.02
2023-03-19T04:09:29.037Z,9.40
2023-03-19T04:11:56.443Z,9.10
2023-03-19T04:14:23.893Z,10.07
2023-03-19T04:16:51.328Z,10.20
2023-03-19T04:19:19.204Z,8.50
2023-03-19T04:21:46.823Z,9.07
2023-03-19T04:24:14.700Z,8.48
2023-03-19T04:26:42.342Z,9.13
2023-03-19T04:29:10.132Z,9.52
2023-03-19T04:31:38.264Z,9.80
2023-03-19T04:34:05.962Z,9.77
2023-03-19T04:36:33.401Z,8.70
2023-03-19T04:39:01.193Z,8.57
2023-03-19T04:41:29.779Z,8.52
2023-03-19T04:44:19.544Z,8.40
2023-03-19T04:46:47.232Z,8.55
2023-03-19T04:49:16.777Z,8.25
2023-03-19T04:51:44.593Z,8.48
2023-03-19T04:54:12.018Z,8.23
2023-03-19T04:56:39.421Z,7.55
2023-03-19T04:59:07.316Z,7.68
2023-03-19T05:01:34.934Z,8.73
2023-03-19T05:04:08.260Z,7.82
2023-03-19T05:06:38.209Z,9.90
2023-03-19T05:09:07.605Z,8.25
2023-03-19T05:11:35.261Z,8.63
2023-03-19T05:14:05.612Z,8.75
2023-03-19T05:16:45.334Z,9.25
2023-03-19T05:19:12.639Z,8.82
2023-03-19T05:21:40.848Z,8.75
2023-03-19T05:24:08.377Z,8.85
2023-03-19T05:26:38.052Z,8.52
2023-03-19T05:29:24.119Z,8.40
2023-03-19T05:32:03.281Z,9.20
2023-03-19T05:34:31.770Z,9.02
2023-03-19T05:36:59.101Z,8.95
2023-03-19T05:39:26.502Z,8.95
2023-03-19T05:41:54.814Z,11.07
2023-03-19T05:44:27.550Z,8.80
2023-03-19T05:47:00.288Z,8.93
2023-03-19T05:49:31.560Z,9.40
2023-03-19T05:51:59.428Z,10.77
2023-03-19T05:54:27.294Z,8.32
2023-03-19T05:57:03.460Z,8.98
2023-03-19T05:59:35.241Z,9.85
2023-03-19T06:02:22.990Z,8.10
2023-03-19T06:04:56.533Z,9.43
2023-03-19T06:07:29.153Z,9.55
2023-03-19T06:09:57.184Z,9.57
2023-03-19T06:12:24.855Z,8.88
2023-03-19T06:15:20.078Z,8.50
2023-03-19T06:17:47.916Z,8.35
2023-03-19T06:20:17.850Z,8.55
2023-03-19T06:22:45.960Z,8.18
2023-03-19T06:25:13.457Z,8.65
2023-03-19T06:27:42.020Z,7.88
2023-03-19T06:30:23.701Z,9.43
2023-03-19T06:32:56.571Z,9.20
2023-03-19T06:36:09.392Z,10.73
2023-03-19T06:38:37.821Z,10.60
2023-03-19T06:41:05.317Z,9.10
2023-03-19T06:43:36.834Z,9.88
2023-03-19T06:46:09.521Z,9.30
2023-03-19T06:48:40.161Z,9.48
2023-03-19T06:51:08.029Z,8.57
2023-03-19T06:53:35.520Z,11.13
2023-03-19T06:56:02.856Z,9.82
2023-03-19T06:58:30.332Z,9.40
2023-03-19T07:00:59.116Z,9.00
2023-03-19T07:03:26.425Z,8.77
2023-03-19T07:05:54.118Z,9.82
2023-03-19T07:08:21.520Z,8.70
2023-03-19T07:10:48.999Z,8.63
2023-03-19T07:13:16.326Z,8.20
2023-03-19T07:15:43.723Z,9.02
2023-03-19T07:18:11.176Z,9.00
2023-03-19T07:20:38.463Z,9.50
2023-03-19T07:23:05.995Z,9.25
2023-03-19T07:25:33.645Z,8.93
2023-03-19T07:28:01.392Z,8.65
2023-03-19T07:30:29.833Z,9.05
2023-03-19T07:32:57.211Z,9.75
2023-03-19T07:35:24.609Z,9.05
2023-03-19T07:37:52.095Z,9.27
2023-03-19T07:41:33.884Z,9.20
2023-03-19T07:44:02.882Z,7.57
2023-03-19T07:46:30.504Z,8.90
2023-03-19T08:01:14.565Z,8.20
2023-03-19T08:03:42.256Z,8.20
2023-03-19T08:06:52.796Z,9.45
2023-03-19T08:09:15.942Z,8.48
2023-03-19T08:11:43.406Z,8.75
2023-03-19T08:14:10.954Z,8.90
2023-03-19T08:16:46.180Z,9.02
2023-03-19T08:19:14.303Z,8.88
2023-03-19T08:22:52.185Z,8.45
2023-03-19T08:25:22.242Z,8.55
2023-03-19T08:27:52.742Z,9.23
2023-03-19T08:30:20.183Z,9.48
2023-03-19T08:32:49.531Z,9.18
2023-03-19T08:35:17.333Z,8.30
2023-03-19T08:37:44.713Z,8.50
2023-03-19T08:40:16.104Z,8.88
2023-03-19T08:42:45.269Z,8.98
2023-03-19T08:45:15.704Z,8.32
2023-03-19T08:47:44.052Z,9.45
2023-03-19T08:50:12.043Z,8.70
2023-03-19T08:52:45.555Z,8.00
2023-03-19T08:55:12.921Z,8.43
2023-03-19T08:57:39.846Z,8.57
2023-03-19T09:00:07.994Z,8.82
2023-03-19T09:02:40.281Z,8.32
2023-03-19T09:05:07.765Z,9.45
2023-03-19T09:07:34.685Z,8.60
2023-03-19T09:10:14.201Z,8.55
2023-03-19T09:12:42.254Z,8.85
2023-03-19T09:15:11.087Z,9.05
2023-03-19T09:17:38.006Z,8.30
2023-03-19T09:20:07.365Z,9.35
2023-03-19T09:22:34.567Z,8.27
2023-03-19T09:25:01.455Z,8.93
2023-03-19T09:27:32.823Z,8.20
2023-03-19T09:30:17.190Z,8.25
2023-03-19T09:32:44.572Z,9.00
2023-03-19T09:35:12.457Z,8.32
2023-03-19T09:37:39.903Z,9.00
2023-03-19T09:40:08.544Z,9.02
2023-03-19T09:43:14.370Z,8.23
2023-03-19T09:45:42.381Z,8.00
2023-03-19T09:48:28.815Z,8.90
2023-03-19T09:51:00.535Z,8.55
2023-03-19T09:53:39.034Z,9.00
2023-03-19T09:56:13.286Z,8.57
2023-03-19T09:58:40.841Z,8.02
2023-03-19T10:01:17.184Z,8.07
2023-03-19T10:04:00.966Z,9.13
2023-03-19T10:06:41.273Z,7.30
2023-03-19T10:09:25.171Z,8.82
2023-03-19T10:12:01.940Z,8.18
2023-03-19T10:14:51.770Z,8.30
2023-03-19T10:17:33.371Z,7.97
2023-03-19T10:20:23.698Z,8.35
2023-03-19T10:23:04.069Z,8.55
2023-03-19T10:25:34.099Z,8.32
2023-03-19T10:28:16.226Z,7.85
2023-03-19T10:30:55.091Z,8.50
2023-03-19T10:33:28.953Z,7.60
2023-03-19T10:36:08.044Z,9.10
2023-03-19T10:38:43.562Z,8.68
2023-03-19T10:41:36.021Z,9.95
2023-03-19T10:44:10.549Z,8.18
2023-03-19T10:46:40.987Z,7.70
2023-03-19T11:08:44.420Z,8.32
2023-03-19T11:16:26.492Z,8.13
2023-03-19T11:23:17.254Z,7.20
2023-03-19T11:25:54.594Z,7.97
2023-03-19T11:28:27.058Z,8.20
2023-03-19T11:31:15.110Z,7.72
2023-03-19T11:34:01.047Z,8.05
2023-03-19T11:36:43.410Z,7.82
2023-03-19T11:39:28.749Z,7.78
2023-03-19T11:42:05.747Z,8.40
2023-03-19T11:45:00.550Z,8.48
2023-03-19T11:47:47.498Z,8.60
2023-03-19T11:50:23.005Z,9.05
2023-03-19T11:52:57.043Z,8.73
2023-03-19T11:55:27.460Z,8.38
2023-03-19T11:58:04.520Z,8.32
2023-03-19T12:00:40.275Z,8.40
2023-03-19T12:03:32.587Z,7.70
2023-03-19T12:06:12.842Z,8.80
2023-03-19T12:09:06.957Z,8.25
2023-03-19T12:12:28.543Z,7.97
2023-03-19T12:15:20.902Z,8.00
2023-03-19T12:17:55.937Z,7.82
2023-03-19T12:20:47.215Z,8.23
2023-03-19T12:23:41.607Z,7.15
2023-03-19T12:26:16.697Z,8.10
2023-03-19T12:29:23.449Z,7.82
2023-03-19T12:32:14.784Z,8.15
2023-03-19T12:34:48.762Z,7.40
2023-03-19T12:37:46.693Z,7.93
2023-03-19T12:40:45.257Z,7.45
2023-03-19T12:43:37.941Z,8.10
2023-03-19T12:46:14.550Z,8.68
2023-03-19T12:48:50.185Z,7.63
2023-03-19T12:51:21.647Z,7.60
2023-03-19T12:54:11.398Z,8.32
2023-03-19T12:57:02.457Z,7.93
2023-03-19T12:59:33.468Z,7.68
2023-03-19T13:02:27.741Z,8.02
2023-03-19T13:05:07.449Z,7.95
2023-03-19T13:08:16.867Z,7.57
2023-03-19T13:14:10.840Z,7.95
2023-03-19T13:16:48.781Z,7.45
2023-03-19T13:19:54.623Z,7.63
2023-03-19T13:34:05.016Z,8.02
2023-03-19T13:36:39.781Z,8.32
2023-03-19T13:39:21.366Z,7.35
2023-03-19T13:41:54.847Z,7.80
2023-03-19T13:44:29.412Z,8.40
2023-03-19T13:46:57.761Z,8.02
2023-03-19T13:49:37.471Z,8.05
2023-03-19T13:52:24.795Z,7.90
2023-03-19T13:54:57.776Z,8.15
2023-03-19T13:57:36.256Z,7.95
2023-03-19T14:00:42.953Z,8.52
2023-03-19T14:03:36.675Z,7.10
2023-03-19T14:06:04.531Z,8.00
2023-03-19T14:08:47.156Z,7.93
2023-03-19T14:13:32.154Z,8.18
2023-03-19T14:17:35.525Z,7.50
2023-03-19T14:20:57.171Z,7.72
2023-03-19T14:23:39.674Z,7.75
2023-03-19T14:26:24.638Z,7.93
2023-03-19T14:29:09.712Z,7.85
2023-03-19T14:34:41.858Z,7.68
2023-03-19T14:37:39.467Z,7.65
2023-03-19T14:40:36.994Z,7.22
2023-03-19T14:43:34.737Z,7.45
2023-03-19T14:46:05.869Z,7.85
2023-03-19T14:49:37.931Z,8.95
2023-03-19T14:52:36.006Z,8.70
2023-03-19T14:55:12.921Z,7.68
2023-03-19T14:57:40.338Z,8.70
2023-03-19T15:03:38.713Z,8.82
2023-03-19T15:10:06.080Z,9.02
2023-03-19T15:13:00.123Z,9.32
2023-03-19T15:15:39.553Z,8.50
2023-03-19T15:18:12.283Z,9.10
2023-03-19T15:20:48.544Z,7.90
2023-03-19T15:23:27.410Z,8.43
2023-03-19T15:25:58.091Z,8.95
2023-03-19T15:28:53.781Z,8.77
2023-03-19T15:31:52.615Z,8.43
2023-03-19T15:34:30.251Z,8.70
2023-03-19T15:37:05.994Z,8.05
2023-03-19T15:39:38.364Z,9.05
2023-03-19T15:42:06.911Z,8.65
2023-03-19T15:44:45.830Z,8.23
2023-03-19T15:47:21.794Z,7.93
2023-03-19T15:50:01.990Z,8.23
2023-03-19T15:52:33.574Z,8.43
2023-03-19T15:55:02.664Z,7.82
2023-03-19T15:57:31.201Z,4.90
2023-03-19T16:00:00.642Z,3.25
2023-03-19T16:02:27.947Z,2.08
2023-03-19T16:05:20.470Z,1.88
2023-03-19T16:07:44.625Z,2.55
2023-03-19T16:10:37.252Z,2.55
2023-03-19T16:13:22.640Z,2.00
2023-03-19T16:18:23.778Z,2.60
2023-03-19T16:21:08.282Z,2.30
2023-03-19T16:23:50.366Z,2.20
2023-03-19T16:27:31.795Z,2.33
2023-03-19T16:30:23.777Z,2.20
2023-03-19T16:51:41.852Z,2.42
2023-03-19T16:54:12.831Z,2.60
2023-03-19T16:56:40.599Z,2.80
2023-03-19T16:59:20.144Z,2.58
2023-03-19T17:01:47.499Z,2.30
2023-03-19T17:04:19.009Z,2.58
2023-03-19T17:06:49.733Z,2.38
2023-03-19T17:09:17.195Z,2.20
2023-03-19T17:11:47.089Z,2.45
2023-03-19T17:14:19.828Z,2.80
2023-03-19T17:16:50.639Z,2.70
2023-03-19T17:19:24.643Z,2.47
2023-03-19T17:22:01.464Z,2.40
2023-03-19T17:24:31.405Z,2.80
2023-03-19T17:27:07.726Z,2.38
2023-03-19T17:29:36.686Z,2.58
2023-03-19T17:32:07.763Z,2.63
2023-03-19T17:34:36.903Z,2.78
2023-03-19T17:37:10.721Z,2.47
2023-03-19T17:39:38.249Z,2.83
2023-03-19T17:42:20.045Z,3.25
2023-03-19T17:44:48.270Z,3.38
2023-03-19T17:47:28.161Z,2.85
2023-03-19T17:50:34.486Z,2.50
2023-03-19T17:53:12.801Z,2.50
2023-03-19T17:55:55.846Z,2.55
2023-03-19T17:58:23.370Z,2.28
2023-03-19T18:00:51.993Z,2.92
2023-03-19T18:03:22.650Z,2.47
2023-03-19T18:05:58.281Z,3.30
2023-03-19T18:12:30.783Z,2.50
2023-03-19T18:15:52.712Z,1.98
2023-03-19T18:18:23.109Z,2.95
2023-03-19T18:20:50.987Z,3.20
2023-03-19T18:23:18.586Z,2.55
2023-03-19T18:28:34.219Z,3.03
2023-03-19T18:31:06.482Z,2.90
2023-03-19T18:33:33.873Z,2.60
2023-03-19T18:36:02.308Z,3.13
2023-03-19T18:38:29.483Z,3.88
2023-03-19T18:40:56.668Z,2.60
2023-03-19T18:43:23.800Z,2.63
2023-03-19T18:45:53.849Z,2.67
2023-03-19T18:48:31.509Z,2.58
2023-03-19T18:50:59.244Z,2.10
2023-03-19T18:53:26.588Z,2.30
2023-03-19T18:55:54.481Z,2.40
2023-03-19T18:58:27.870Z,2.38
2023-03-19T19:00:55.411Z,2.50
2023-03-19T19:03:29.631Z,2.85
2023-03-19T19:05:59.769Z,2.80
2023-03-19T19:08:29.536Z,3.03
2023-03-19T19:11:03.865Z,2.92
2023-03-19T19:13:46.268Z,2.45
2023-03-19T19:16:28.353Z,2.22
2023-03-19T19:18:55.844Z,2.42
2023-03-19T19:21:23.506Z,2.65
2023-03-19T19:23:50.556Z,2.70
2023-03-19T19:26:28.720Z,3.22
2023-03-19T19:29:02.748Z,3.05
2023-03-19T19:31:35.950Z,2.95
2023-03-19T19:34:03.991Z,4.60
2023-03-19T19:36:31.325Z,3.35
2023-03-19T19:38:58.753Z,4.20
2023-03-19T19:41:27.225Z,3.75
2023-03-19T19:43:55.862Z,3.53
2023-03-19T19:46:24.736Z,3.40
2023-03-19T19:48:52.046Z,3.30
2023-03-19T19:51:23.504Z,2.90
2023-03-19T19:53:52.552Z,2.97
2023-03-19T19:56:25.859Z,3.20
2023-03-19T19:58:55.815Z,2.92
2023-03-19T20:01:26.434Z,3.47
2023-03-19T20:03:54.442Z,3.08
2023-03-19T20:06:21.742Z,2.88
2023-03-19T20:08:49.468Z,2.90
2023-03-19T20:11:24.596Z,2.45
2023-03-19T20:13:55.637Z,2.92
2023-03-19T20:16:26.826Z,3.60
2023-03-19T20:18:55.084Z,3.60
2023-03-19T20:21:23.405Z,3.92
2023-03-19T20:23:55.395Z,3.47
2023-03-19T20:26:25.280Z,3.22
2023-03-19T20:28:53.141Z,3.55
2023-03-19T20:31:26.328Z,3.10
2023-03-19T20:33:53.936Z,3.10
2023-03-19T20:36:21.285Z,3.17
2023-03-19T20:38:48.618Z,2.63
2023-03-19T20:41:25.929Z,2.72
2023-03-19T20:43:54.809Z,2.90
2023-03-19T20:46:23.725Z,2.70
2023-03-19T20:48:51.224Z,2.83
2023-03-19T20:51:24.696Z,3.65
2023-03-19T20:53:52.769Z,3.38
2023-03-19T20:56:24.387Z,2.67
2023-03-19T20:59:00.926Z,2.70
2023-03-19T21:01:28.205Z,2.58
2023-03-19T21:03:55.226Z,3.05
2023-03-19T21:06:24.412Z,2.90
2023-03-19T21:08:57.187Z,3.25
2023-03-19T21:11:41.962Z,3.05
2023-03-19T21:14:18.481Z,3.22
2023-03-19T21:16:47.092Z,3.53
2023-03-19T21:19:14.517Z,4.15
2023-03-19T21:21:43.238Z,3.67
2023-03-19T21:24:20.842Z,3.67
2023-03-19T21:26:48.290Z,3.30
2023-03-19T21:29:29.435Z,3.88
2023-03-19T21:31:57.815Z,4.07
2023-03-19T21:34:25.268Z,3.17
2023-03-19T21:36:52.406Z,3.50
2023-03-19T21:39:19.382Z,3.55
2023-03-19T21:41:46.876Z,4.25
2023-03-19T21:44:18.603Z,3.95
2023-03-19T21:46:47.751Z,4.75
2023-03-19T21:49:18.244Z,4.32
2023-03-19T21:51:47.015Z,4.28
2023-03-19T21:54:15.689Z,4.70
2023-03-19T21:56:45.655Z,5.13
2023-03-19T21:59:25.577Z,5.30
2023-03-19T22:01:52.628Z,6.18
2023-03-19T22:04:19.751Z,6.10
2023-03-19T22:06:49.099Z,5.50
2023-03-19T22:09:16.450Z,5.95
2023-03-19T22:11:45.946Z,6.30
2023-03-19T22:14:26.916Z,5.60
2023-03-19T22:16:56.235Z,6.63
2023-03-19T22:19:23.866Z,6.13
2023-03-19T22:21:50.936Z,6.15
2023-03-19T22:24:18.022Z,6.63
2023-03-19T22:26:49.559Z,5.60
2023-03-19T22:29:23.631Z,6.40
2023-03-19T22:31:53.619Z,6.07
2023-03-19T22:34:24.389Z,5.38
2023-03-19T22:36:51.610Z,6.03
2023-03-19T22:39:18.705Z,5.75
2023-03-19T22:41:48.638Z,5.70
2023-03-19T22:44:42.209Z,5.05
2023-03-19T22:47:20.285Z,5.85
2023-03-19T22:49:47.503Z,5.43
2023-03-19T22:52:14.725Z,4.63
2023-03-19T22:54:41.949Z,4.40
2023-03-19T22:57:14.901Z,4.20
2023-03-19T22:59:42.895Z,3.35
2023-03-19T23:02:14.580Z,3.70
2023-03-19T23:04:41.942Z,3.50
2023-03-19T23:07:12.670Z,3.72
2023-03-19T23:09:39.807Z,3.67
2023-03-19T23:14:36.650Z,3.45
2023-03-19T23:17:17.342Z,3.83
2023-03-19T23:19:44.554Z,3.55
2023-03-19T23:22:16.547Z,3.72
2023-03-19T23:24:44.647Z,4.57
2023-03-19T23:27:26.264Z,4.75
2023-03-19T23:29:54.521Z,4.15
2023-03-19T23:32:22.002Z,4.47
2023-03-19T23:35:00.260Z,5.28
2023-03-19T23:37:28.818Z,6.18
2023-03-19T23:39:56.303Z,7.55
2023-03-19T23:42:31.855Z,8.82
2023-03-19T23:45:03.678Z,8.05
2023-03-19T23:47:31.317Z,6.72
2023-03-19T23:49:58.474Z,7.78
2023-03-19T23:52:25.564Z,7.55
2023-03-19T23:54:52.601Z,6.35
2023-03-19T23:57:22.720Z,6.43
2023-03-19T23:59:52.226Z,7.40
